sensor_id;sensor_type;location;lat;lon;timestamp;pressure;altitude;pressure_sealevel;temperature;humidity
19096;BME280;9680;52.520;13.332;2023-11-19T00:00:02;101307.47;;;5.40;79.67
19096;BME280;9680;52.520;13.332;2023-11-19T00:02:33;101292.81;;;5.39;79.56
19096;BME280;9680;52.520;13.332;2023-11-19T00:04:59;101290.25;;;5.39;79.84
19096;BME280;9680;52.520;13.332;2023-11-19T00:07:26;101273.00;;;5.43;79.57
19096;BME280;9680;52.520;13.332;2023-11-19T00:09:53;101264.41;;;5.41;79.54
19096;BME280;9680;52.520;13.332;2023-11-19T00:12:20;101258.34;;;5.43;79.52
19096;BME280;9680;52.520;13.332;2023-11-19T00:14:48;101260.91;;;5.43;79.40
19096;BME280;9680;52.520;13.332;2023-11-19T00:17:16;101253.19;;;5.42;79.46
19096;BME280;9680;52.520;13.332;2023-11-19T00:19:42;101244.56;;;5.41;79.10
19096;BME280;9680;52.520;13.332;2023-11-19T00:22:09;101233.41;;;5.41;79.04
19096;BME280;9680;52.520;13.332;2023-11-19T00:24:36;101235.94;;;5.42;79.11
19096;BME280;9680;52.520;13.332;2023-11-19T00:27:03;101232.50;;;5.43;78.99
19096;BME280;9680;52.520;13.332;2023-11-19T00:29:29;101231.66;;;5.43;79.08
19096;BME280;9680;52.520;13.332;2023-11-19T00:31:56;101222.22;;;5.38;78.81
19096;BME280;9680;52.520;13.332;2023-11-19T00:34:25;101223.03;;;5.42;78.67
19096;BME280;9680;52.520;13.332;2023-11-19T00:36:52;101217.06;;;5.38;78.81
19096;BME280;9680;52.520;13.332;2023-11-19T00:39:20;101214.41;;;5.43;78.87
19096;BME280;9680;52.520;13.332;2023-11-19T00:41:48;101197.16;;;5.45;78.80
19096;BME280;9680;52.520;13.332;2023-11-19T00:44:14;101185.09;;;5.47;78.70
19096;BME280;9680;52.520;13.332;2023-11-19T00:46:41;101179.06;;;5.47;78.25
19096;BME280;9680;52.520;13.332;2023-11-19T00:49:08;101170.44;;;5.48;78.39
19096;BME280;9680;52.520;13.332;2023-11-19T00:51:38;101171.25;;;5.51;78.40
19096;BME280;9680;52.520;13.332;2023-11-19T00:54:05;101160.88;;;5.54;78.24
19096;BME280;9680;52.520;13.332;2023-11-19T00:56:31;101153.09;;;5.59;78.05
19096;BME280;9680;52.520;13.332;2023-11-19T00:58:58;101147.06;;;5.59;77.96
19096;BME280;9680;52.520;13.332;2023-11-19T01:01:25;101136.72;;;5.59;78.01
19096;BME280;9680;52.520;13.332;2023-11-19T01:03:52;101132.41;;;5.58;77.64
19096;BME280;9680;52.520;13.332;2023-11-19T01:06:27;101121.22;;;5.59;77.63
19096;BME280;9680;52.520;13.332;2023-11-19T01:08:55;101121.19;;;5.62;77.29
19096;BME280;9680;52.520;13.332;2023-11-19T01:11:22;101111.72;;;5.62;77.41
19096;BME280;9680;52.520;13.332;2023-11-19T01:13:49;101092.75;;;5.65;77.41
19096;BME280;9680;52.520;13.332;2023-11-19T01:16:17;101072.06;;;5.62;76.96
19096;BME280;9680;52.520;13.332;2023-11-19T01:18:44;101076.41;;;5.60;76.96
19096;BME280;9680;52.520;13.332;2023-11-19T01:21:12;101073.84;;;5.57;76.85
19096;BME280;9680;52.520;13.332;2023-11-19T01:23:40;101067.00;;;5.54;76.84
19096;BME280;9680;52.520;13.332;2023-11-19T01:26:09;101063.53;;;5.55;76.59
19096;BME280;9680;52.520;13.332;2023-11-19T01:28:37;101069.56;;;5.56;76.64
19096;BME280;9680;52.520;13.332;2023-11-19T01:31:05;101056.63;;;5.57;76.69
19096;BME280;9680;52.520;13.332;2023-11-19T01:33:32;101054.88;;;5.58;76.63
19096;BME280;9680;52.520;13.332;2023-11-19T01:35:58;101053.97;;;5.63;76.54
19096;BME280;9680;52.520;13.332;2023-11-19T01:38:25;101042.75;;;5.66;76.35
19096;BME280;9680;52.520;13.332;2023-11-19T01:40:55;101023.78;;;5.67;76.32
19096;BME280;9680;52.520;13.332;2023-11-19T01:43:34;101012.59;;;5.65;75.97
19096;BME280;9680;52.520;13.332;2023-11-19T01:46:01;100996.22;;;5.66;76.23
19096;BME280;9680;52.520;13.332;2023-11-19T01:48:29;100984.13;;;5.66;75.97
19096;BME280;9680;52.520;13.332;2023-11-19T01:50:56;100991.06;;;5.64;75.65
19096;BME280;9680;52.520;13.332;2023-11-19T01:53:23;100979.94;;;5.59;75.75
19096;BME280;9680;52.520;13.332;2023-11-19T01:55:51;100978.19;;;5.60;76.08
19096;BME280;9680;52.520;13.332;2023-11-19T01:58:19;100974.75;;;5.58;76.17
19096;BME280;9680;52.520;13.332;2023-11-19T02:00:47;100970.50;;;5.53;76.46
19096;BME280;9680;52.520;13.332;2023-11-19T02:03:15;100969.63;;;5.54;76.52
19096;BME280;9680;52.520;13.332;2023-11-19T02:05:42;100965.34;;;5.55;76.96
19096;BME280;9680;52.520;13.332;2023-11-19T02:08:09;100938.66;;;5.53;77.13
19096;BME280;9680;52.520;13.332;2023-11-19T02:10:37;100934.38;;;5.52;77.54
19096;BME280;9680;52.520;13.332;2023-11-19T02:13:05;100914.56;;;5.51;77.92
19096;BME280;9680;52.520;13.332;2023-11-19T02:15:32;100899.94;;;5.48;78.24
19096;BME280;9680;52.520;13.332;2023-11-19T02:18:18;100890.50;;;5.47;78.36
19096;BME280;9680;52.520;13.332;2023-11-19T02:20:45;100879.22;;;5.53;78.35
19096;BME280;9680;52.520;13.332;2023-11-19T02:23:13;100880.09;;;5.52;78.31
19096;BME280;9680;52.520;13.332;2023-11-19T02:25:40;100885.22;;;5.53;78.35
19096;BME280;9680;52.520;13.332;2023-11-19T02:28:09;100884.41;;;5.53;78.33
19096;BME280;9680;52.520;13.332;2023-11-19T02:30:37;100872.31;;;5.55;78.41
19096;BME280;9680;52.520;13.332;2023-11-19T02:33:04;100865.44;;;5.54;78.29
19096;BME280;9680;52.520;13.332;2023-11-19T02:35:32;100854.19;;;5.57;78.38
19096;BME280;9680;52.520;13.332;2023-11-19T02:37:59;100849.88;;;5.56;78.19
19096;BME280;9680;52.520;13.332;2023-11-19T02:40:26;100848.16;;;5.56;78.23
19096;BME280;9680;52.520;13.332;2023-11-19T02:42:53;100845.53;;;5.58;78.06
19096;BME280;9680;52.520;13.332;2023-11-19T02:45:22;100847.19;;;5.62;78.06
19096;BME280;9680;52.520;13.332;2023-11-19T02:47:50;100853.25;;;5.62;78.18
19096;BME280;9680;52.520;13.332;2023-11-19T02:50:18;100838.63;;;5.60;78.20
19096;BME280;9680;52.520;13.332;2023-11-19T02:52:51;100819.63;;;5.62;78.35
19096;BME280;9680;52.520;13.332;2023-11-19T02:55:18;100815.25;;;5.67;78.34
19096;BME280;9680;52.520;13.332;2023-11-19T02:57:45;100797.16;;;5.69;78.19
19096;BME280;9680;52.520;13.332;2023-11-19T03:00:15;100784.13;;;5.74;78.35
19096;BME280;9680;52.520;13.332;2023-11-19T03:02:43;100781.53;;;5.75;78.18
19096;BME280;9680;52.520;13.332;2023-11-19T03:05:12;100780.66;;;5.76;78.09
19096;BME280;9680;52.520;13.332;2023-11-19T03:07:40;100779.72;;;5.79;78.20
19096;BME280;9680;52.520;13.332;2023-11-19T03:10:09;100779.78;;;5.77;78.03
19096;BME280;9680;52.520;13.332;2023-11-19T03:12:39;100800.47;;;5.76;77.88
19096;BME280;9680;52.520;13.332;2023-11-19T03:15:07;100790.09;;;5.77;78.08
19096;BME280;9680;52.520;13.332;2023-11-19T03:17:35;100786.72;;;5.74;77.97
19096;BME280;9680;52.520;13.332;2023-11-19T03:20:06;100788.47;;;5.73;78.14
19096;BME280;9680;52.520;13.332;2023-11-19T03:22:35;100791.88;;;5.75;78.17
19096;BME280;9680;52.520;13.332;2023-11-19T03:25:03;100797.88;;;5.76;78.32
19096;BME280;9680;52.520;13.332;2023-11-19T03:27:33;100788.41;;;5.75;78.16
19096;BME280;9680;52.520;13.332;2023-11-19T03:30:01;100785.00;;;5.74;78.41
19096;BME280;9680;52.520;13.332;2023-11-19T03:32:30;100760.84;;;5.74;78.75
19096;BME280;9680;52.520;13.332;2023-11-19T03:34:57;100756.66;;;5.68;79.34
19096;BME280;9680;52.520;13.332;2023-11-19T03:37:26;100730.00;;;5.66;79.68
19096;BME280;9680;52.520;13.332;2023-11-19T03:39:53;100728.31;;;5.63;80.15
19096;BME280;9680;52.520;13.332;2023-11-19T03:42:20;100728.34;;;5.60;80.61
19096;BME280;9680;52.520;13.332;2023-11-19T03:44:47;100722.44;;;5.53;81.54
19096;BME280;9680;52.520;13.332;2023-11-19T03:47:15;100719.91;;;5.50;82.05
19096;BME280;9680;52.520;13.332;2023-11-19T03:49:42;100716.59;;;5.42;82.98
19096;BME280;9680;52.520;13.332;2023-11-19T03:52:09;100711.47;;;5.41;82.94
19096;BME280;9680;52.520;13.332;2023-11-19T03:54:37;100702.91;;;5.38;83.54
19096;BME280;9680;52.520;13.332;2023-11-19T03:57:04;100697.78;;;5.35;84.15
19096;BME280;9680;52.520;13.332;2023-11-19T03:59:32;100676.28;;;5.33;84.21
19096;BME280;9680;52.520;13.332;2023-11-19T04:01:59;100653.91;;;5.32;84.68
19096;BME280;9680;52.520;13.332;2023-11-19T04:04:27;100648.00;;;5.25;84.75
19096;BME280;9680;52.520;13.332;2023-11-19T04:06:55;100650.56;;;5.25;85.22
19096;BME280;9680;52.520;13.332;2023-11-19T04:09:22;100648.00;;;5.25;85.49
19096;BME280;9680;52.520;13.332;2023-11-19T04:11:50;100648.88;;;5.24;85.95
19096;BME280;9680;52.520;13.332;2023-11-19T04:14:16;100635.97;;;5.24;86.07
19096;BME280;9680;52.520;13.332;2023-11-19T04:16:43;100631.63;;;5.25;86.51
19096;BME280;9680;52.520;13.332;2023-11-19T04:19:10;100625.56;;;5.28;86.75
19096;BME280;9680;52.520;13.332;2023-11-19T04:21:39;100618.69;;;5.27;86.83
19096;BME280;9680;52.520;13.332;2023-11-19T04:24:07;100616.94;;;5.29;86.99
19096;BME280;9680;52.520;13.332;2023-11-19T04:26:40;100607.44;;;5.31;87.30
19096;BME280;9680;52.520;13.332;2023-11-19T04:29:08;100607.38;;;5.35;87.33
19096;BME280;9680;52.520;13.332;2023-11-19T04:31:36;100609.03;;;5.38;87.37
19096;BME280;9680;52.520;13.332;2023-11-19T04:34:03;100612.38;;;5.43;87.37
19096;BME280;9680;52.520;13.332;2023-11-19T04:36:30;100600.31;;;5.44;87.43
19096;BME280;9680;52.520;13.332;2023-11-19T04:38:57;100613.19;;;5.45;87.65
19096;BME280;9680;52.520;13.332;2023-11-19T04:41:25;100615.00;;;5.42;87.60
19096;BME280;9680;52.520;13.332;2023-11-19T04:43:52;100610.72;;;5.39;87.70
19096;BME280;9680;52.520;13.332;2023-11-19T04:46:21;100607.25;;;5.40;88.26
19096;BME280;9680;52.520;13.332;2023-11-19T04:48:49;100597.81;;;5.39;88.57
19096;BME280;9680;52.520;13.332;2023-11-19T04:51:16;100590.09;;;5.37;88.44
19096;BME280;9680;52.520;13.332;2023-11-19T04:53:42;100583.25;;;5.35;88.83
19096;BME280;9680;52.520;13.332;2023-11-19T04:56:10;100582.41;;;5.34;89.14
19096;BME280;9680;52.520;13.332;2023-11-19T04:58:37;100565.22;;;5.32;89.41
19096;BME280;9680;52.520;13.332;2023-11-19T05:01:04;100567.81;;;5.32;89.53
19096;BME280;9680;52.520;13.332;2023-11-19T05:03:32;100567.84;;;5.30;89.67
19096;BME280;9680;52.520;13.332;2023-11-19T05:05:59;100564.38;;;5.31;90.28
19096;BME280;9680;52.520;13.332;2023-11-19T05:08:26;100550.63;;;5.29;90.49
19096;BME280;9680;52.520;13.332;2023-11-19T05:10:53;100534.31;;;5.27;90.51
19096;BME280;9680;52.520;13.332;2023-11-19T05:13:20;100525.78;;;5.22;90.79
19096;BME280;9680;52.520;13.332;2023-11-19T05:15:46;100520.63;;;5.23;91.17
19096;BME280;9680;52.520;13.332;2023-11-19T05:18:13;100509.34;;;5.26;91.39
19096;BME280;9680;52.520;13.332;2023-11-19T05:20:41;100499.03;;;5.26;91.61
19096;BME280;9680;52.520;13.332;2023-11-19T05:23:08;100509.34;;;5.26;91.73
19096;BME280;9680;52.520;13.332;2023-11-19T05:25:36;100503.38;;;5.24;91.92
19096;BME280;9680;52.520;13.332;2023-11-19T05:28:03;100501.66;;;5.24;92.28
19096;BME280;9680;52.520;13.332;2023-11-19T05:30:30;100503.41;;;5.22;92.11
19096;BME280;9680;52.520;13.332;2023-11-19T05:32:56;100491.41;;;5.20;92.44
19096;BME280;9680;52.520;13.332;2023-11-19T05:35:23;100491.44;;;5.18;92.59
19096;BME280;9680;52.520;13.332;2023-11-19T05:37:51;100493.91;;;5.23;92.79
19096;BME280;9680;52.520;13.332;2023-11-19T05:40:18;100476.59;;;5.28;92.83
19096;BME280;9680;52.520;13.332;2023-11-19T05:42:46;100467.97;;;5.29;92.87
19096;BME280;9680;52.520;13.332;2023-11-19T05:45:12;100461.97;;;5.27;93.01
19096;BME280;9680;52.520;13.332;2023-11-19T05:47:39;100450.81;;;5.25;92.82
19096;BME280;9680;52.520;13.332;2023-11-19T05:50:07;100438.84;;;5.22;93.07
19096;BME280;9680;52.520;13.332;2023-11-19T05:52:34;100446.69;;;5.18;93.37
19096;BME280;9680;52.520;13.332;2023-11-19T05:55:01;100444.97;;;5.18;93.92
19096;BME280;9680;52.520;13.332;2023-11-19T05:57:29;100441.50;;;5.19;94.17
19096;BME280;9680;52.520;13.332;2023-11-19T05:59:56;100431.97;;;5.21;93.89
19096;BME280;9680;52.520;13.332;2023-11-19T06:02:24;100425.06;;;5.23;94.29
19096;BME280;9680;52.520;13.332;2023-11-19T06:04:52;100426.69;;;5.26;94.29
19096;BME280;9680;52.520;13.332;2023-11-19T06:07:19;100442.13;;;5.31;94.38
19096;BME280;9680;52.520;13.332;2023-11-19T06:09:46;100424.91;;;5.30;94.26
19096;BME280;9680;52.520;13.332;2023-11-19T06:12:14;100429.19;;;5.31;94.38
19096;BME280;9680;52.520;13.332;2023-11-19T06:14:41;100418.88;;;5.31;94.58
19096;BME280;9680;52.520;13.332;2023-11-19T06:17:08;100406.75;;;5.34;94.35
19096;BME280;9680;52.520;13.332;2023-11-19T06:19:36;100401.59;;;5.33;94.59
19096;BME280;9680;52.520;13.332;2023-11-19T06:22:03;100391.19;;;5.36;94.71
19096;BME280;9680;52.520;13.332;2023-11-19T06:24:30;100397.09;;;5.43;94.78
19096;BME280;9680;52.520;13.332;2023-11-19T06:26:57;100399.56;;;5.47;94.75
19096;BME280;9680;52.520;13.332;2023-11-19T06:29:25;100394.31;;;5.50;94.50
19096;BME280;9680;52.520;13.332;2023-11-19T06:31:52;100383.09;;;5.51;94.36
19096;BME280;9680;52.520;13.332;2023-11-19T06:34:19;100378.81;;;5.50;94.53
19096;BME280;9680;52.520;13.332;2023-11-19T06:36:45;100382.28;;;5.49;94.64
19096;BME280;9680;52.520;13.332;2023-11-19T06:39:13;100369.44;;;5.46;94.80
19096;BME280;9680;52.520;13.332;2023-11-19T06:41:44;100359.97;;;5.47;94.90
19096;BME280;9680;52.520;13.332;2023-11-19T06:44:11;100360.81;;;5.47;94.93
19096;BME280;9680;52.520;13.332;2023-11-19T06:46:40;100368.47;;;5.52;95.05
19096;BME280;9680;52.520;13.332;2023-11-19T06:49:07;100372.78;;;5.51;94.97
19096;BME280;9680;52.520;13.332;2023-11-19T06:51:34;100364.13;;;5.54;94.99
19096;BME280;9680;52.520;13.332;2023-11-19T06:54:01;100367.50;;;5.56;94.94
19096;BME280;9680;52.520;13.332;2023-11-19T06:56:27;100363.09;;;5.60;95.03
19096;BME280;9680;52.520;13.332;2023-11-19T06:58:54;100367.34;;;5.64;94.97
19096;BME280;9680;52.520;13.332;2023-11-19T07:01:21;100360.50;;;5.61;95.18
19096;BME280;9680;52.520;13.332;2023-11-19T07:03:49;100377.63;;;5.65;95.10
19096;BME280;9680;52.520;13.332;2023-11-19T07:06:17;100364.69;;;5.67;95.13
19096;BME280;9680;52.520;13.332;2023-11-19T07:08:44;100362.03;;;5.70;94.94
19096;BME280;9680;52.520;13.332;2023-11-19T07:11:12;100367.16;;;5.72;94.81
19096;BME280;9680;52.520;13.332;2023-11-19T07:13:39;100367.06;;;5.76;95.31
19096;BME280;9680;52.520;13.332;2023-11-19T07:16:07;100385.97;;;5.78;95.01
19096;BME280;9680;52.520;13.332;2023-11-19T07:18:35;100387.53;;;5.84;95.14
19096;BME280;9680;52.520;13.332;2023-11-19T07:21:04;100377.97;;;5.88;94.85
19096;BME280;9680;52.520;13.332;2023-11-19T07:23:31;100377.16;;;5.86;94.97
19096;BME280;9680;52.520;13.332;2023-11-19T07:25:58;100369.34;;;5.89;94.95
19096;BME280;9680;52.520;13.332;2023-11-19T07:28:25;100368.38;;;5.91;94.97
19096;BME280;9680;52.520;13.332;2023-11-19T07:30:54;100358.91;;;5.92;94.93
19096;BME280;9680;52.520;13.332;2023-11-19T07:33:22;100349.38;;;5.94;95.01
19096;BME280;9680;52.520;13.332;2023-11-19T07:35:48;100344.94;;;5.99;95.28
19096;BME280;9680;52.520;13.332;2023-11-19T07:38:17;100362.16;;;6.02;94.92
19096;BME280;9680;52.520;13.332;2023-11-19T07:40:44;100364.69;;;6.03;95.06
19096;BME280;9680;52.520;13.332;2023-11-19T07:43:11;100352.41;;;6.11;95.18
19096;BME280;9680;52.520;13.332;2023-11-19T07:45:38;100357.44;;;6.18;95.00
19096;BME280;9680;52.520;13.332;2023-11-19T07:48:04;100353.94;;;6.20;94.91
19096;BME280;9680;52.520;13.332;2023-11-19T07:50:31;100356.47;;;6.22;94.90
19096;BME280;9680;52.520;13.332;2023-11-19T07:52:58;100351.34;;;6.20;95.00
19096;BME280;9680;52.520;13.332;2023-11-19T07:55:27;100352.91;;;6.26;95.33
19096;BME280;9680;52.520;13.332;2023-11-19T07:57:54;100348.44;;;6.33;95.05
19096;BME280;9680;52.520;13.332;2023-11-19T08:00:21;100362.09;;;6.38;95.22
19096;BME280;9680;52.520;13.332;2023-11-19T08:02:47;100346.47;;;6.41;94.89
19096;BME280;9680;52.520;13.332;2023-11-19T08:05:14;100342.13;;;6.43;94.98
19096;BME280;9680;52.520;13.332;2023-11-19T08:07:41;100348.16;;;6.44;94.73
19096;BME280;9680;52.520;13.332;2023-11-19T08:10:08;100356.09;;;6.37;94.57
19096;BME280;9680;52.520;13.332;2023-11-19T08:12:37;100363.06;;;6.34;95.05
19096;BME280;9680;52.520;13.332;2023-11-19T08:15:05;100352.59;;;6.38;95.65
19096;BME280;9680;52.520;13.332;2023-11-19T08:17:32;100336.75;;;6.49;96.04
19096;BME280;9680;52.520;13.332;2023-11-19T08:19:59;100329.56;;;6.61;96.13
19096;BME280;9680;52.520;13.332;2023-11-19T08:22:26;100336.13;;;6.73;96.25
19096;BME280;9680;52.520;13.332;2023-11-19T08:24:53;100341.09;;;6.80;95.79
19096;BME280;9680;52.520;13.332;2023-11-19T08:27:20;100346.94;;;6.87;95.78
19096;BME280;9680;52.520;13.332;2023-11-19T08:29:54;100330.25;;;6.97;95.73
19096;BME280;9680;52.520;13.332;2023-11-19T08:32:22;100323.09;;;7.06;95.33
19096;BME280;9680;52.520;13.332;2023-11-19T08:34:49;100318.63;;;7.11;95.12
19096;BME280;9680;52.520;13.332;2023-11-19T08:37:15;100326.25;;;7.16;94.82
19096;BME280;9680;52.520;13.332;2023-11-19T08:39:43;100319.34;;;7.16;94.76
19096;BME280;9680;52.520;13.332;2023-11-19T08:42:10;100315.56;;;7.26;95.13
19096;BME280;9680;52.520;13.332;2023-11-19T08:44:37;100313.50;;;7.38;94.87
19096;BME280;9680;52.520;13.332;2023-11-19T08:47:05;100316.47;;;7.52;94.90
19096;BME280;9680;52.520;13.332;2023-11-19T08:49:32;100307.13;;;7.75;95.12
19096;BME280;9680;52.520;13.332;2023-11-19T08:51:59;100320.59;;;7.86;94.34
19096;BME280;9680;52.520;13.332;2023-11-19T08:54:25;100304.16;;;7.86;93.44
19096;BME280;9680;52.520;13.332;2023-11-19T08:56:52;100311.09;;;7.85;93.29
19096;BME280;9680;52.520;13.332;2023-11-19T08:59:19;100319.00;;;7.82;93.36
19096;BME280;9680;52.520;13.332;2023-11-19T09:01:46;100308.63;;;7.82;93.40
19096;BME280;9680;52.520;13.332;2023-11-19T09:04:14;100302.31;;;7.90;93.73
19096;BME280;9680;52.520;13.332;2023-11-19T09:06:41;100300.41;;;7.95;93.72
19096;BME280;9680;52.520;13.332;2023-11-19T09:09:09;100300.38;;;7.96;93.57
19096;BME280;9680;52.520;13.332;2023-11-19T09:11:36;100315.94;;;7.96;93.52
19096;BME280;9680;52.520;13.332;2023-11-19T09:14:03;100314.66;;;8.08;93.78
19096;BME280;9680;52.520;13.332;2023-11-19T09:16:30;100310.59;;;8.26;93.97
19096;BME280;9680;52.520;13.332;2023-11-19T09:18:57;100324.00;;;8.39;94.15
19096;BME280;9680;52.520;13.332;2023-11-19T09:21:26;100325.38;;;8.50;93.35
19096;BME280;9680;52.520;13.332;2023-11-19T09:23:54;100307.53;;;8.64;93.43
19096;BME280;9680;52.520;13.332;2023-11-19T09:26:21;100311.69;;;8.70;92.90
19096;BME280;9680;52.520;13.332;2023-11-19T09:28:48;100312.34;;;8.75;92.97
19096;BME280;9680;52.520;13.332;2023-11-19T09:31:15;100310.44;;;8.80;92.96
19096;BME280;9680;52.520;13.332;2023-11-19T09:33:42;100287.41;;;8.93;93.41
19096;BME280;9680;52.520;13.332;2023-11-19T09:36:10;100314.00;;;9.00;92.51
19096;BME280;9680;52.520;13.332;2023-11-19T09:38:40;100297.00;;;8.91;92.24
19096;BME280;9680;52.520;13.332;2023-11-19T09:41:07;100293.97;;;8.80;92.35
19096;BME280;9680;52.520;13.332;2023-11-19T09:43:35;100310.31;;;8.83;93.06
19096;BME280;9680;52.520;13.332;2023-11-19T09:46:05;100296.84;;;8.96;93.80
19096;BME280;9680;52.520;13.332;2023-11-19T09:48:33;100292.09;;;9.07;93.71
19096;BME280;9680;52.520;13.332;2023-11-19T09:51:01;100301.47;;;9.33;93.77
19096;BME280;9680;52.520;13.332;2023-11-19T09:53:28;100290.69;;;9.43;92.92
19096;BME280;9680;52.520;13.332;2023-11-19T09:55:56;100282.59;;;9.51;92.63
19096;BME280;9680;52.520;13.332;2023-11-19T09:58:23;100289.97;;;9.61;92.60
19096;BME280;9680;52.520;13.332;2023-11-19T10:00:50;100287.88;;;9.70;92.66
19096;BME280;9680;52.520;13.332;2023-11-19T10:03:17;100281.31;;;9.82;92.62
19096;BME280;9680;52.520;13.332;2023-11-19T10:05:44;100278.53;;;9.86;92.36
19096;BME280;9680;52.520;13.332;2023-11-19T10:08:13;100281.38;;;9.80;91.65
19096;BME280;9680;52.520;13.332;2023-11-19T10:10:39;100279.09;;;9.72;91.96
19096;BME280;9680;52.520;13.332;2023-11-19T10:13:07;100283.47;;;9.72;92.44
19096;BME280;9680;52.520;13.332;2023-11-19T10:15:36;100278.13;;;9.75;92.93
19096;BME280;9680;52.520;13.332;2023-11-19T10:18:04;100277.28;;;9.74;92.90
19096;BME280;9680;52.520;13.332;2023-11-19T10:20:35;100280.78;;;9.73;93.36
19096;BME280;9680;52.520;13.332;2023-11-19T10:23:02;100286.63;;;9.79;93.90
19096;BME280;9680;52.520;13.332;2023-11-19T10:25:29;100276.69;;;9.88;93.98
19096;BME280;9680;52.520;13.332;2023-11-19T10:27:57;100277.47;;;10.11;94.59
19096;BME280;9680;52.520;13.332;2023-11-19T10:30:26;100269.84;;;10.27;93.84
19096;BME280;9680;52.520;13.332;2023-11-19T10:33:05;100265.34;;;10.31;93.02
19096;BME280;9680;52.520;13.332;2023-11-19T10:35:32;100263.63;;;10.51;93.54
19096;BME280;9680;52.520;13.332;2023-11-19T10:38:00;100249.75;;;10.88;93.61
19096;BME280;9680;52.520;13.332;2023-11-19T10:40:40;100253.88;;;11.12;92.55
19096;BME280;9680;52.520;13.332;2023-11-19T10:43:07;100257.09;;;11.17;91.68
19096;BME280;9680;52.520;13.332;2023-11-19T10:45:35;100253.06;;;11.29;91.88
19096;BME280;9680;52.520;13.332;2023-11-19T10:48:03;100247.31;;;11.40;91.67
19096;BME280;9680;52.520;13.332;2023-11-19T10:50:32;100237.88;;;11.55;91.51
19096;BME280;9680;52.520;13.332;2023-11-19T10:52:59;100243.56;;;11.63;90.33
19096;BME280;9680;52.520;13.332;2023-11-19T10:55:27;100245.25;;;11.64;90.40
19096;BME280;9680;52.520;13.332;2023-11-19T10:57:59;100246.78;;;11.50;89.88
19096;BME280;9680;52.520;13.332;2023-11-19T11:00:29;100239.88;;;11.32;90.24
19096;BME280;9680;52.520;13.332;2023-11-19T11:03:01;100244.75;;;11.20;90.72
19096;BME280;9680;52.520;13.332;2023-11-19T11:05:30;100252.41;;;11.06;91.21
19096;BME280;9680;52.520;13.332;2023-11-19T11:08:00;100235.50;;;10.96;92.05
19096;BME280;9680;52.520;13.332;2023-11-19T11:10:28;100241.84;;;10.90;92.55
19096;BME280;9680;52.520;13.332;2023-11-19T11:12:59;100244.44;;;10.90;93.08
19096;BME280;9680;52.520;13.332;2023-11-19T11:15:30;100238.38;;;11.09;93.47
19096;BME280;9680;52.520;13.332;2023-11-19T11:18:00;100231.88;;;11.17;92.40
19096;BME280;9680;52.520;13.332;2023-11-19T11:20:29;100237.94;;;11.18;92.21
19096;BME280;9680;52.520;13.332;2023-11-19T11:23:12;100242.69;;;11.27;92.26
19096;BME280;9680;52.520;13.332;2023-11-19T11:25:52;100230.59;;;11.26;91.35
19096;BME280;9680;52.520;13.332;2023-11-19T11:28:32;100229.97;;;11.21;91.48
19096;BME280;9680;52.520;13.332;2023-11-19T11:31:12;100230.78;;;11.21;91.73
19096;BME280;9680;52.520;13.332;2023-11-19T11:33:58;100240.34;;;11.40;91.55
19096;BME280;9680;52.520;13.332;2023-11-19T11:36:30;100229.28;;;11.53;91.04
19096;BME280;9680;52.520;13.332;2023-11-19T11:38:58;100231.22;;;11.67;90.92
19096;BME280;9680;52.520;13.332;2023-11-19T11:41:26;100225.88;;;11.86;90.34
19096;BME280;9680;52.520;13.332;2023-11-19T11:43:53;100224.88;;;12.06;89.65
19096;BME280;9680;52.520;13.332;2023-11-19T11:46:55;100222.16;;;12.25;88.46
19096;BME280;9680;52.520;13.332;2023-11-19T11:49:28;100236.06;;;12.42;88.27
19096;BME280;9680;52.520;13.332;2023-11-19T11:51:59;100230.16;;;12.54;87.32
19096;BME280;9680;52.520;13.332;2023-11-19T11:54:28;100234.94;;;12.63;86.81
19096;BME280;9680;52.520;13.332;2023-11-19T11:57:09;100227.25;;;12.60;85.93
19096;BME280;9680;52.520;13.332;2023-11-19T11:59:46;100222.34;;;12.54;85.92
19096;BME280;9680;52.520;13.332;2023-11-19T12:02:16;100226.16;;;12.48;85.44
19096;BME280;9680;52.520;13.332;2023-11-19T12:04:46;100224.03;;;12.39;85.94
19096;BME280;9680;52.520;13.332;2023-11-19T12:07:16;100220.81;;;12.34;85.48
19096;BME280;9680;52.520;13.332;2023-11-19T12:09:47;100232.19;;;12.33;85.86
19096;BME280;9680;52.520;13.332;2023-11-19T12:12:19;100225.88;;;12.37;85.92
19096;BME280;9680;52.520;13.332;2023-11-19T12:15:05;100231.78;;;12.41;85.24
19096;BME280;9680;52.520;13.332;2023-11-19T12:17:44;100222.94;;;12.43;85.07
19096;BME280;9680;52.520;13.332;2023-11-19T12:20:17;100238.63;;;12.43;85.19
19096;BME280;9680;52.520;13.332;2023-11-19T12:22:44;100228.34;;;12.40;85.21
19096;BME280;9680;52.520;13.332;2023-11-19T12:25:12;100226.47;;;12.42;85.27
19096;BME280;9680;52.520;13.332;2023-11-19T12:27:40;100223.94;;;12.41;84.98
19096;BME280;9680;52.520;13.332;2023-11-19T12:30:08;100231.19;;;12.35;84.88
19096;BME280;9680;52.520;13.332;2023-11-19T12:32:39;100223.91;;;12.24;85.30
19096;BME280;9680;52.520;13.332;2023-11-19T12:35:07;100226.19;;;12.15;85.47
19096;BME280;9680;52.520;13.332;2023-11-19T12:37:42;100217.16;;;12.04;86.33
19096;BME280;9680;52.520;13.332;2023-11-19T12:40:13;100215.97;;;11.92;86.08
19096;BME280;9680;52.520;13.332;2023-11-19T12:42:40;100212.94;;;11.84;86.56
19096;BME280;9680;52.520;13.332;2023-11-19T12:45:08;100225.22;;;11.82;87.13
19096;BME280;9680;52.520;13.332;2023-11-19T12:47:36;100220.97;;;11.79;87.28
19096;BME280;9680;52.520;13.332;2023-11-19T12:50:04;100232.88;;;11.85;87.67
19096;BME280;9680;52.520;13.332;2023-11-19T12:52:32;100228.34;;;11.89;87.38
19096;BME280;9680;52.520;13.332;2023-11-19T12:55:00;100235.88;;;11.77;87.08
19096;BME280;9680;52.520;13.332;2023-11-19T12:57:40;100228.91;;;11.60;86.51
19096;BME280;9680;52.520;13.332;2023-11-19T13:00:17;100238.25;;;11.47;86.71
19096;BME280;9680;52.520;13.332;2023-11-19T13:02:46;100241.25;;;11.39;86.99